sensor_id;sensor_type;location;lat;lon;timestamp;pressure;altitude;pressure_sealevel;temperature;humidity
28797;BME280;24974;54.444;18.560;2024-02-28T00:00:40;101457.47;;;7.99;67.48
28797;BME280;24974;54.444;18.560;2024-02-28T00:03:11;101464.03;;;8.59;65.49
28797;BME280;24974;54.444;18.560;2024-02-28T00:05:42;101461.84;;;8.40;66.49
28797;BME280;24974;54.444;18.560;2024-02-28T00:08:13;101451.44;;;7.97;66.77
28797;BME280;24974;54.444;18.560;2024-02-28T00:10:44;101458.25;;;7.64;68.74
28797;BME280;24974;54.444;18.560;2024-02-28T00:13:15;101449.53;;;7.92;67.74
28797;BME280;24974;54.444;18.560;2024-02-28T00:15:46;101456.06;;;8.32;66.74
28797;BME280;24974;54.444;18.560;2024-02-28T00:18:17;101446.75;;;8.68;65.00
28797;BME280;24974;54.444;18.560;2024-02-28T00:20:49;101453.91;;;8.39;66.07
28797;BME280;24974;54.444;18.560;2024-02-28T00:23:20;101450.06;;;8.55;65.52
28797;BME280;24974;54.444;18.560;2024-02-28T00:25:51;101448.69;;;8.22;66.08
28797;BME280;24974;54.444;18.560;2024-02-28T00:28:22;101447.06;;;8.52;65.55
28797;BME280;24974;54.444;18.560;2024-02-28T00:30:53;101450.50;;;8.93;63.95
28797;BME280;24974;54.444;18.560;2024-02-28T00:33:24;101453.06;;;8.59;65.02
28797;BME280;24974;54.444;18.560;2024-02-28T00:35:55;101446.88;;;9.08;64.04
28797;BME280;24974;54.444;18.560;2024-02-28T00:38:26;101458.44;;;8.89;63.41
28797;BME280;24974;54.444;18.560;2024-02-28T00:40:58;101451.44;;;7.71;66.79
28797;BME280;24974;54.444;18.560;2024-02-28T00:43:29;101452.38;;;8.97;63.82
28797;BME280;24974;54.444;18.560;2024-02-28T00:46:00;101460.75;;;8.47;65.46
28797;BME280;24974;54.444;18.560;2024-02-28T00:48:31;101448.66;;;8.58;65.69
28797;BME280;24974;54.444;18.560;2024-02-28T00:51:02;101442.66;;;8.10;66.85
28797;BME280;24974;54.444;18.560;2024-02-28T00:53:34;101442.13;;;7.77;67.68
28797;BME280;24974;54.444;18.560;2024-02-28T00:56:05;101440.75;;;7.90;66.83
28797;BME280;24974;54.444;18.560;2024-02-28T00:58:36;101450.06;;;8.09;67.61
28797;BME280;24974;54.444;18.560;2024-02-28T01:01:09;101450.91;;;8.05;66.25
28797;BME280;24974;54.444;18.560;2024-02-28T01:03:40;101445.44;;;8.35;65.38
28797;BME280;24974;54.444;18.560;2024-02-28T01:06:11;101446.25;;;8.05;66.33
28797;BME280;24974;54.444;18.560;2024-02-28T01:08:42;101448.53;;;9.09;63.94
28797;BME280;24974;54.444;18.560;2024-02-28T01:11:13;101446.25;;;9.26;63.20
28797;BME280;24974;54.444;18.560;2024-02-28T01:13:44;101440.25;;;9.19;63.18
28797;BME280;24974;54.444;18.560;2024-02-28T01:16:15;101446.69;;;8.84;63.83
28797;BME280;24974;54.444;18.560;2024-02-28T01:18:46;101440.88;;;8.95;63.44
28797;BME280;24974;54.444;18.560;2024-02-28T01:21:17;101440.94;;;8.85;63.79
28797;BME280;24974;54.444;18.560;2024-02-28T01:23:48;101432.81;;;7.99;65.71
28797;BME280;24974;54.444;18.560;2024-02-28T01:26:19;101446.16;;;9.46;62.23
28797;BME280;24974;54.444;18.560;2024-02-28T01:28:52;101440.88;;;9.01;63.52
28797;BME280;24974;54.444;18.560;2024-02-28T01:31:23;101446.22;;;8.41;64.80
28797;BME280;24974;54.444;18.560;2024-02-28T01:33:54;101442.44;;;9.17;62.75
28797;BME280;24974;54.444;18.560;2024-02-28T01:36:26;101447.59;;;9.29;62.57
28797;BME280;24974;54.444;18.560;2024-02-28T01:38:58;101439.72;;;9.17;63.63
28797;BME280;24974;54.444;18.560;2024-02-28T01:41:29;101439.38;;;8.54;64.99
28797;BME280;24974;54.444;18.560;2024-02-28T01:44:00;101438.84;;;7.75;66.89
28797;BME280;24974;54.444;18.560;2024-02-28T01:46:31;101434.69;;;8.69;63.76
28797;BME280;24974;54.444;18.560;2024-02-28T01:49:03;101424.28;;;9.26;63.13
28797;BME280;24974;54.444;18.560;2024-02-28T01:51:34;101428.28;;;8.94;63.38
28797;BME280;24974;54.444;18.560;2024-02-28T01:54:06;101428.72;;;8.17;65.72
28797;BME280;24974;54.444;18.560;2024-02-28T01:56:38;101418.31;;;8.24;65.92
28797;BME280;24974;54.444;18.560;2024-02-28T01:59:13;101414.22;;;9.16;63.44
28797;BME280;24974;54.444;18.560;2024-02-28T02:01:44;101410.44;;;9.02;63.20
28797;BME280;24974;54.444;18.560;2024-02-28T02:04:15;101416.84;;;8.82;64.25
28797;BME280;24974;54.444;18.560;2024-02-28T02:06:46;101408.41;;;8.33;65.80
28797;BME280;24974;54.444;18.560;2024-02-28T02:09:18;101411.13;;;9.28;63.11
28797;BME280;24974;54.444;18.560;2024-02-28T02:11:49;101412.06;;;9.52;62.32
28797;BME280;24974;54.444;18.560;2024-02-28T02:14:20;101410.88;;;9.19;62.90
28797;BME280;24974;54.444;18.560;2024-02-28T02:16:51;101420.00;;;9.10;62.79
28797;BME280;24974;54.444;18.560;2024-02-28T02:19:22;101416.69;;;9.13;63.39
28797;BME280;24974;54.444;18.560;2024-02-28T02:21:54;101411.84;;;8.89;64.16
28797;BME280;24974;54.444;18.560;2024-02-28T02:24:28;101415.56;;;9.14;63.45
28797;BME280;24974;54.444;18.560;2024-02-28T02:26:59;101421.34;;;8.37;65.14
28797;BME280;24974;54.444;18.560;2024-02-28T02:29:30;101419.69;;;8.11;65.87
28797;BME280;24974;54.444;18.560;2024-02-28T02:32:01;101426.78;;;8.22;65.99
28797;BME280;24974;54.444;18.560;2024-02-28T02:34:32;101423.50;;;8.30;65.12
28797;BME280;24974;54.444;18.560;2024-02-28T02:37:03;101424.84;;;7.41;67.69
28797;BME280;24974;54.444;18.560;2024-02-28T02:39:35;101423.50;;;7.84;66.76
28797;BME280;24974;54.444;18.560;2024-02-28T02:42:07;101430.66;;;7.96;66.67
28797;BME280;24974;54.444;18.560;2024-02-28T02:44:38;101428.28;;;8.89;63.91
28797;BME280;24974;54.444;18.560;2024-02-28T02:47:09;101413.53;;;9.40;62.46
28797;BME280;24974;54.444;18.560;2024-02-28T02:49:40;101417.19;;;9.25;63.28
28797;BME280;24974;54.444;18.560;2024-02-28T02:52:11;101411.44;;;8.31;64.59
28797;BME280;24974;54.444;18.560;2024-02-28T02:54:42;101403.22;;;7.45;67.62
28797;BME280;24974;54.444;18.560;2024-02-28T02:57:13;101409.25;;;8.49;65.17
28797;BME280;24974;54.444;18.560;2024-02-28T02:59:44;101414.81;;;8.98;63.50
28797;BME280;24974;54.444;18.560;2024-02-28T03:02:15;101408.44;;;8.28;65.46
28797;BME280;24974;54.444;18.560;2024-02-28T03:04:46;101409.03;;;9.05;63.66
28797;BME280;24974;54.444;18.560;2024-02-28T03:07:16;101410.50;;;8.82;63.67
28797;BME280;24974;54.444;18.560;2024-02-28T03:09:47;101414.09;;;8.77;63.93
28797;BME280;24974;54.444;18.560;2024-02-28T03:12:18;101416.03;;;8.77;64.11
28797;BME280;24974;54.444;18.560;2024-02-28T03:14:49;101412.34;;;9.07;63.57
28797;BME280;24974;54.444;18.560;2024-02-28T03:17:20;101407.50;;;8.83;64.21
28797;BME280;24974;54.444;18.560;2024-02-28T03:19:51;101404.63;;;8.19;65.41
28797;BME280;24974;54.444;18.560;2024-02-28T03:22:22;101403.75;;;8.54;65.17
28797;BME280;24974;54.444;18.560;2024-02-28T03:24:53;101410.81;;;8.75;64.79
28797;BME280;24974;54.444;18.560;2024-02-28T03:27:24;101402.50;;;9.01;63.88
28797;BME280;24974;54.444;18.560;2024-02-28T03:29:55;101406.22;;;9.25;62.23
28797;BME280;24974;54.444;18.560;2024-02-28T03:32:26;101408.16;;;8.45;64.90
28797;BME280;24974;54.444;18.560;2024-02-28T03:34:58;101404.34;;;7.69;66.86
28797;BME280;24974;54.444;18.560;2024-02-28T03:37:29;101413.66;;;8.45;65.18
28797;BME280;24974;54.444;18.560;2024-02-28T03:40:00;101421.78;;;8.75;64.69
28797;BME280;24974;54.444;18.560;2024-02-28T03:42:31;101413.91;;;7.46;67.57
28797;BME280;24974;54.444;18.560;2024-02-28T03:45:02;101411.88;;;8.84;63.84
28797;BME280;24974;54.444;18.560;2024-02-28T03:47:33;101423.50;;;8.46;64.24
28797;BME280;24974;54.444;18.560;2024-02-28T03:50:05;101424.78;;;8.84;64.19
28797;BME280;24974;54.444;18.560;2024-02-28T03:52:36;101428.19;;;8.20;66.39
28797;BME280;24974;54.444;18.560;2024-02-28T03:55:07;101424.59;;;8.45;64.51
28797;BME280;24974;54.444;18.560;2024-02-28T03:57:39;101424.84;;;8.33;64.75
28797;BME280;24974;54.444;18.560;2024-02-28T04:00:10;101421.63;;;9.06;63.66
28797;BME280;24974;54.444;18.560;2024-02-28T04:02:44;101417.19;;;9.25;62.31
28797;BME280;24974;54.444;18.560;2024-02-28T04:05:16;101415.78;;;8.68;64.37
28797;BME280;24974;54.444;18.560;2024-02-28T04:07:48;101417.31;;;8.89;63.26
28797;BME280;24974;54.444;18.560;2024-02-28T04:10:19;101415.03;;;9.17;62.36
28797;BME280;24974;54.444;18.560;2024-02-28T04:12:50;101418.88;;;8.36;64.75
28797;BME280;24974;54.444;18.560;2024-02-28T04:15:20;101419.13;;;9.19;63.09
28797;BME280;24974;54.444;18.560;2024-02-28T04:17:52;101422.81;;;8.89;63.16
28797;BME280;24974;54.444;18.560;2024-02-28T04:20:23;101424.25;;;8.72;63.93
28797;BME280;24974;54.444;18.560;2024-02-28T04:22:54;101413.47;;;8.95;63.30
28797;BME280;24974;54.444;18.560;2024-02-28T04:25:25;101419.13;;;7.94;66.17
28797;BME280;24974;54.444;18.560;2024-02-28T04:27:56;101416.63;;;8.53;64.88
28797;BME280;24974;54.444;18.560;2024-02-28T04:30:28;101407.88;;;7.44;67.54
28797;BME280;24974;54.444;18.560;2024-02-28T04:32:59;101411.97;;;8.49;64.06
28797;BME280;24974;54.444;18.560;2024-02-28T04:35:30;101411.47;;;7.91;66.78
28797;BME280;24974;54.444;18.560;2024-02-28T04:38:01;101406.72;;;7.20;68.25
28797;BME280;24974;54.444;18.560;2024-02-28T04:40:32;101409.25;;;8.59;65.13
28797;BME280;24974;54.444;18.560;2024-02-28T04:43:03;101411.66;;;8.65;64.23
28797;BME280;24974;54.444;18.560;2024-02-28T04:45:34;101418.03;;;8.30;65.57
28797;BME280;24974;54.444;18.560;2024-02-28T04:48:06;101422.81;;;8.94;63.85
28797;BME280;24974;54.444;18.560;2024-02-28T04:50:37;101424.06;;;8.17;64.96
28797;BME280;24974;54.444;18.560;2024-02-28T04:53:08;101421.75;;;8.80;63.49
28797;BME280;24974;54.444;18.560;2024-02-28T04:55:39;101417.94;;;8.71;63.96
28797;BME280;24974;54.444;18.560;2024-02-28T04:58:10;101426.78;;;8.17;64.99
28797;BME280;24974;54.444;18.560;2024-02-28T05:00:41;101424.63;;;8.19;66.08
28797;BME280;24974;54.444;18.560;2024-02-28T05:03:12;101417.47;;;8.59;65.05
28797;BME280;24974;54.444;18.560;2024-02-28T05:05:43;101412.53;;;8.51;65.12
28797;BME280;24974;54.444;18.560;2024-02-28T05:08:14;101418.19;;;8.80;64.05
28797;BME280;24974;54.444;18.560;2024-02-28T05:10:45;101418.53;;;8.63;64.74
28797;BME280;24974;54.444;18.560;2024-02-28T05:13:16;101422.56;;;8.91;63.26
28797;BME280;24974;54.444;18.560;2024-02-28T05:15:47;101429.56;;;7.97;65.64
28797;BME280;24974;54.444;18.560;2024-02-28T05:18:17;101428.41;;;8.49;65.15
28797;BME280;24974;54.444;18.560;2024-02-28T05:20:48;101429.00;;;8.05;66.67
28797;BME280;24974;54.444;18.560;2024-02-28T05:23:19;101428.13;;;8.55;64.64
28797;BME280;24974;54.444;18.560;2024-02-28T05:25:50;101429.81;;;8.46;64.58
28797;BME280;24974;54.444;18.560;2024-02-28T05:28:21;101432.22;;;8.63;64.59
28797;BME280;24974;54.444;18.560;2024-02-28T05:30:52;101426.53;;;9.14;63.26
28797;BME280;24974;54.444;18.560;2024-02-28T05:33:23;101434.97;;;9.33;62.47
28797;BME280;24974;54.444;18.560;2024-02-28T05:35:54;101426.66;;;8.88;63.13
28797;BME280;24974;54.444;18.560;2024-02-28T05:38:25;101428.88;;;8.86;63.94
28797;BME280;24974;54.444;18.560;2024-02-28T05:40:56;101429.28;;;9.14;62.88
28797;BME280;24974;54.444;18.560;2024-02-28T05:43:27;101432.28;;;8.07;64.93
28797;BME280;24974;54.444;18.560;2024-02-28T05:45:57;101440.72;;;8.61;64.41
28797;BME280;24974;54.444;18.560;2024-02-28T05:48:28;101442.44;;;9.17;62.65
28797;BME280;24974;54.444;18.560;2024-02-28T05:51:03;101446.50;;;8.24;65.31
28797;BME280;24974;54.444;18.560;2024-02-28T05:53:34;101445.69;;;7.93;65.43
28797;BME280;24974;54.444;18.560;2024-02-28T05:56:09;101443.22;;;8.53;65.53
28797;BME280;24974;54.444;18.560;2024-02-28T05:58:44;101443.91;;;8.94;64.45
28797;BME280;24974;54.444;18.560;2024-02-28T06:01:16;101447.59;;;7.93;65.91
28797;BME280;24974;54.444;18.560;2024-02-28T06:03:50;101445.94;;;8.58;63.82
28797;BME280;24974;54.444;18.560;2024-02-28T06:06:21;101454.16;;;8.68;63.99
28797;BME280;24974;54.444;18.560;2024-02-28T06:08:52;101450.34;;;8.54;64.51
28797;BME280;24974;54.444;18.560;2024-02-28T06:11:23;101454.16;;;8.17;65.83
28797;BME280;24974;54.444;18.560;2024-02-28T06:13:54;101452.47;;;8.72;64.56
28797;BME280;24974;54.444;18.560;2024-02-28T06:16:24;101459.72;;;9.12;63.25
28797;BME280;24974;54.444;18.560;2024-02-28T06:18:56;101458.31;;;8.50;65.66
28797;BME280;24974;54.444;18.560;2024-02-28T06:21:27;101455.81;;;8.54;64.40
28797;BME280;24974;54.444;18.560;2024-02-28T06:23:58;101461.84;;;7.95;66.51
28797;BME280;24974;54.444;18.560;2024-02-28T06:26:28;101468.41;;;8.24;65.54
28797;BME280;24974;54.444;18.560;2024-02-28T06:29:01;101459.91;;;8.56;64.68
28797;BME280;24974;54.444;18.560;2024-02-28T06:31:34;101459.66;;;8.17;65.55
28797;BME280;24974;54.444;18.560;2024-02-28T06:34:05;101463.19;;;7.82;67.13
28797;BME280;24974;54.444;18.560;2024-02-28T06:36:36;101457.47;;;7.99;66.64
28797;BME280;24974;54.444;18.560;2024-02-28T06:39:07;101466.50;;;8.50;65.72
28797;BME280;24974;54.444;18.560;2024-02-28T06:41:38;101460.59;;;9.08;63.82
28797;BME280;24974;54.444;18.560;2024-02-28T06:44:09;101459.63;;;8.58;64.04
28797;BME280;24974;54.444;18.560;2024-02-28T06:46:41;101457.19;;;8.16;65.57
28797;BME280;24974;54.444;18.560;2024-02-28T06:49:12;101455.81;;;8.54;65.18
28797;BME280;24974;54.444;18.560;2024-02-28T06:51:44;101456.63;;;8.49;65.27
28797;BME280;24974;54.444;18.560;2024-02-28T06:54:15;101460.38;;;8.89;64.33
28797;BME280;24974;54.444;18.560;2024-02-28T06:56:46;101457.13;;;8.72;64.62
28797;BME280;24974;54.444;18.560;2024-02-28T06:59:17;101465.97;;;9.28;63.29
28797;BME280;24974;54.444;18.560;2024-02-28T07:01:48;101468.41;;;9.35;62.30
28797;BME280;24974;54.444;18.560;2024-02-28T07:04:19;101468.00;;;8.97;63.62
28797;BME280;24974;54.444;18.560;2024-02-28T07:06:50;101471.13;;;8.70;64.79
28797;BME280;24974;54.444;18.560;2024-02-28T07:09:21;101476.34;;;8.26;65.11
28797;BME280;24974;54.444;18.560;2024-02-28T07:11:52;101485.88;;;8.84;64.40
28797;BME280;24974;54.444;18.560;2024-02-28T07:14:23;101476.84;;;8.74;64.43
28797;BME280;24974;54.444;18.560;2024-02-28T07:16:54;101481.44;;;9.04;63.65
28797;BME280;24974;54.444;18.560;2024-02-28T07:19:26;101482.66;;;8.47;65.11
28797;BME280;24974;54.444;18.560;2024-02-28T07:21:57;101487.84;;;8.63;65.12
28797;BME280;24974;54.444;18.560;2024-02-28T07:24:28;101486.50;;;8.46;65.72
28797;BME280;24974;54.444;18.560;2024-02-28T07:26:59;101489.22;;;8.30;65.89
28797;BME280;24974;54.444;18.560;2024-02-28T07:29:29;101490.31;;;8.70;64.67
28797;BME280;24974;54.444;18.560;2024-02-28T07:32:00;101493.34;;;9.38;62.61
28797;BME280;24974;54.444;18.560;2024-02-28T07:34:33;101494.44;;;9.37;62.73
28797;BME280;24974;54.444;18.560;2024-02-28T07:37:04;101495.25;;;8.12;66.67
28797;BME280;24974;54.444;18.560;2024-02-28T07:39:35;101497.88;;;9.09;63.56
28797;BME280;24974;54.444;18.560;2024-02-28T07:42:06;101500.66;;;8.93;64.15
28797;BME280;24974;54.444;18.560;2024-02-28T07:44:36;101499.53;;;9.05;63.70
28797;BME280;24974;54.444;18.560;2024-02-28T07:47:07;101494.78;;;9.25;63.35
28797;BME280;24974;54.444;18.560;2024-02-28T07:49:38;101493.03;;;8.75;64.35
28797;BME280;24974;54.444;18.560;2024-02-28T07:52:09;101496.34;;;8.11;66.92
28797;BME280;24974;54.444;18.560;2024-02-28T07:54:43;101505.94;;;8.59;65.35
28797;BME280;24974;54.444;18.560;2024-02-28T07:57:14;101506.94;;;9.04;63.67
28797;BME280;24974;54.444;18.560;2024-02-28T07:59:45;101510.66;;;9.34;62.48
28797;BME280;24974;54.444;18.560;2024-02-28T08:02:16;101504.75;;;7.64;67.95
28797;BME280;24974;54.444;18.560;2024-02-28T08:04:50;101510.03;;;8.82;65.21
28797;BME280;24974;54.444;18.560;2024-02-28T08:07:21;101519.81;;;9.09;64.09
28797;BME280;24974;54.444;18.560;2024-02-28T08:09:52;101517.69;;;8.80;64.50
28797;BME280;24974;54.444;18.560;2024-02-28T08:12:23;101523.34;;;9.19;63.91
28797;BME280;24974;54.444;18.560;2024-02-28T08:14:54;101515.53;;;8.57;65.26
28797;BME280;24974;54.444;18.560;2024-02-28T08:17:25;101522.06;;;8.81;64.62
28797;BME280;24974;54.444;18.560;2024-02-28T08:19:56;101510.81;;;8.93;64.24
28797;BME280;24974;54.444;18.560;2024-02-28T09:20:33;101536.34;;;8.78;65.01
28797;BME280;24974;54.444;18.560;2024-02-28T09:23:04;101527.06;;;8.38;66.83
28797;BME280;24974;54.444;18.560;2024-02-28T09:25:37;101521.56;;;8.44;66.89
28797;BME280;24974;54.444;18.560;2024-02-28T09:28:08;101541.00;;;8.73;65.47
28797;BME280;24974;54.444;18.560;2024-02-28T09:30:41;101541.78;;;8.32;66.16
28797;BME280;24974;54.444;18.560;2024-02-28T09:33:13;101544.75;;;9.17;64.25
28797;BME280;24974;54.444;18.560;2024-02-28T09:35:44;101536.81;;;9.11;63.86
28797;BME280;24974;54.444;18.560;2024-02-28T09:38:15;101539.50;;;9.31;63.66
28797;BME280;24974;54.444;18.560;2024-02-28T09:40:46;101537.97;;;8.28;65.97
28797;BME280;24974;54.444;18.560;2024-02-28T09:43:24;101540.69;;;8.89;64.62
28797;BME280;24974;54.444;18.560;2024-02-28T09:46:01;101551.13;;;8.77;65.28
28797;BME280;24974;54.444;18.560;2024-02-28T09:48:34;101544.53;;;8.99;64.72
28797;BME280;24974;54.444;18.560;2024-02-28T09:51:05;101546.16;;;9.00;64.84
28797;BME280;24974;54.444;18.560;2024-02-28T09:53:37;101541.00;;;8.73;65.21
28797;BME280;24974;54.444;18.560;2024-02-28T09:56:08;101547.72;;;9.26;64.14
28797;BME280;24974;54.444;18.560;2024-02-28T09:58:39;101543.75;;;8.67;65.51
28797;BME280;24974;54.444;18.560;2024-02-28T10:01:11;101545.31;;;9.09;64.38
28797;BME280;24974;54.444;18.560;2024-02-28T10:03:44;101545.75;;;9.37;64.66
28797;BME280;24974;54.444;18.560;2024-02-28T10:06:16;101550.72;;;10.33;61.79
28797;BME280;24974;54.444;18.560;2024-02-28T10:08:47;101548.84;;;10.58;60.79
28797;BME280;24974;54.444;18.560;2024-02-28T10:11:21;101556.19;;;10.39;61.56
28797;BME280;24974;54.444;18.560;2024-02-28T10:13:53;101565.31;;;10.29;62.32
28797;BME280;24974;54.444;18.560;2024-02-28T10:16:25;101558.53;;;10.50;60.99
28797;BME280;24974;54.444;18.560;2024-02-28T10:18:56;101559.00;;;10.62;60.30
28797;BME280;24974;54.444;18.560;2024-02-28T10:21:30;101555.91;;;10.98;59.61
28797;BME280;24974;54.444;18.560;2024-02-28T10:24:04;101558.63;;;10.40;61.03
28797;BME280;24974;54.444;18.560;2024-02-28T10:26:45;101560.19;;;10.80;60.38
28797;BME280;24974;54.444;18.560;2024-02-28T10:29:16;101563.97;;;10.60;60.84
28797;BME280;24974;54.444;18.560;2024-02-28T10:31:47;101560.41;;;10.89;60.25
28797;BME280;24974;54.444;18.560;2024-02-28T10:34:18;101564.81;;;10.56;60.93
28797;BME280;24974;54.444;18.560;2024-02-28T10:36:50;101571.94;;;10.18;61.89
28797;BME280;24974;54.444;18.560;2024-02-28T10:39:21;101576.28;;;9.15;64.20
28797;BME280;24974;54.444;18.560;2024-02-28T10:41:53;101574.47;;;10.14;62.23
28797;BME280;24974;54.444;18.560;2024-02-28T10:44:26;101567.63;;;10.80;60.38
28797;BME280;24974;54.444;18.560;2024-02-28T10:46:59;101569.00;;;11.06;59.31
28797;BME280;24974;54.444;18.560;2024-02-28T10:49:31;101574.47;;;10.82;60.53
28797;BME280;24974;54.444;18.560;2024-02-28T10:52:03;101585.09;;;10.31;61.30
28797;BME280;24974;54.444;18.560;2024-02-28T10:54:36;101575.41;;;10.73;60.34
28797;BME280;24974;54.444;18.560;2024-02-28T10:57:12;101576.59;;;10.90;60.11
28797;BME280;24974;54.444;18.560;2024-02-28T10:59:44;101572.41;;;10.69;59.93
28797;BME280;24974;54.444;18.560;2024-02-28T11:02:16;101569.94;;;10.97;59.48
28797;BME280;24974;54.444;18.560;2024-02-28T11:04:47;101575.72;;;10.66;59.73
28797;BME280;24974;54.444;18.560;2024-02-28T11:07:21;101572.91;;;11.29;59.33
28797;BME280;24974;54.444;18.560;2024-02-28T11:09:55;101571.56;;;11.27;58.80
28797;BME280;24974;54.444;18.560;2024-02-28T11:12:27;101576.59;;;10.61;59.93
28797;BME280;24974;54.444;18.560;2024-02-28T11:15:03;101573.00;;;11.19;59.30
28797;BME280;24974;54.444;18.560;2024-02-28T11:17:37;101575.28;;;11.12;59.31
28797;BME280;24974;54.444;18.560;2024-02-28T11:20:11;101583.00;;;10.86;59.92
28797;BME280;24974;54.444;18.560;2024-02-28T11:22:43;101583.25;;;11.37;58.41
28797;BME280;24974;54.444;18.560;2024-02-28T11:25:15;101590.78;;;10.74;60.99
28797;BME280;24974;54.444;18.560;2024-02-28T11:27:49;101594.56;;;11.12;59.15
28797;BME280;24974;54.444;18.560;2024-02-28T11:30:21;101582.50;;;10.79;59.39
28797;BME280;24974;54.444;18.560;2024-02-28T11:32:52;101584.22;;;10.70;60.93
28797;BME280;24974;54.444;18.560;2024-02-28T11:35:27;101587.25;;;11.26;59.33
28797;BME280;24974;54.444;18.560;2024-02-28T11:38:02;101584.66;;;10.82;59.76
28797;BME280;24974;54.444;18.560;2024-02-28T11:40:32;101587.34;;;10.92;59.37
28797;BME280;24974;54.444;18.560;2024-02-28T11:43:04;101583.38;;;11.51;58.56
28797;BME280;24974;54.444;18.560;2024-02-28T11:45:39;101583.84;;;12.01;57.58
28797;BME280;24974;54.444;18.560;2024-02-28T11:48:13;101584.13;;;10.80;59.92
28797;BME280;24974;54.444;18.560;2024-02-28T11:50:44;101583.81;;;11.39;59.18
28797;BME280;24974;54.444;18.560;2024-02-28T11:53:15;101585.78;;;11.34;59.31
28797;BME280;24974;54.444;18.560;2024-02-28T11:55:46;101589.31;;;11.15;58.99
28797;BME280;24974;54.444;18.560;2024-02-28T11:58:18;101588.09;;;10.69;60.92
28797;BME280;24974;54.444;18.560;2024-02-28T12:00:51;101593.25;;;10.75;60.79
28797;BME280;24974;54.444;18.560;2024-02-28T12:03:23;101597.34;;;9.94;62.98
28797;BME280;24974;54.444;18.560;2024-02-28T12:05:55;101603.19;;;9.88;62.87
28797;BME280;24974;54.444;18.560;2024-02-28T12:08:27;101599.13;;;9.70;63.38
28797;BME280;24974;54.444;18.560;2024-02-28T12:11:08;101598.25;;;9.85;62.78
28797;BME280;24974;54.444;18.560;2024-02-28T12:13:40;101603.47;;;10.35;61.92
28797;BME280;24974;54.444;18.560;2024-02-28T12:16:11;101609.75;;;11.57;58.68
28797;BME280;24974;54.444;18.560;2024-02-28T12:18:42;101601.81;;;11.27;59.14
28797;BME280;24974;54.444;18.560;2024-02-28T12:21:13;101598.66;;;10.85;60.69
28797;BME280;24974;54.444;18.560;2024-02-28T12:23:44;101599.16;;;10.19;62.30
28797;BME280;24974;54.444;18.560;2024-02-28T12:26:17;101603.84;;;10.14;63.23
28797;BME280;24974;54.444;18.560;2024-02-28T12:28:49;101596.47;;;10.82;61.29
28797;BME280;24974;54.444;18.560;2024-02-28T12:31:19;101603.69;;;11.07;60.22
28797;BME280;24974;54.444;18.560;2024-02-28T12:33:52;101606.78;;;11.01;60.24
28797;BME280;24974;54.444;18.560;2024-02-28T12:36:24;101608.28;;;11.41;59.35
28797;BME280;24974;54.444;18.560;2024-02-28T12:38:55;101608.91;;;10.75;60.79
28797;BME280;24974;54.444;18.560;2024-02-28T12:41:27;101605.06;;;11.34;59.77
28797;BME280;24974;54.444;18.560;2024-02-28T12:43:58;101609.84;;;11.23;59.86
28797;BME280;24974;54.444;18.560;2024-02-28T12:46:29;101606.38;;;10.05;62.60
28797;BME280;24974;54.444;18.560;2024-02-28T12:49:00;101616.41;;;10.69;60.84
28797;BME280;24974;54.444;18.560;2024-02-28T12:51:42;101608.78;;;10.90;60.91
28797;BME280;24974;54.444;18.560;2024-02-28T12:54:14;101613.00;;;11.35;59.64
28797;BME280;24974;54.444;18.560;2024-02-28T12:56:45;101614.13;;;11.05;61.10
28797;BME280;24974;54.444;18.560;2024-02-28T12:59:16;101610.06;;;11.03;60.96
28797;BME280;24974;54.444;18.560;2024-02-28T13:01:47;101609.81;;;10.31;62.29
28797;BME280;24974;54.444;18.560;2024-02-28T13:04:18;101608.56;;;10.52;61.41
28797;BME280;24974;54.444;18.560;2024-02-28T13:06:49;101617.91;;;11.14;60.26
28797;BME280;24974;54.444;18.560;2024-02-28T13:09:20;101617.84;;;10.22;61.46
28797;BME280;24974;54.444;18.560;2024-02-28T13:11:53;101618.28;;;11.32;59.10
28797;BME280;24974;54.444;18.560;2024-02-28T13:14:24;101623.50;;;11.04;60.82
28797;BME280;24974;54.444;18.560;2024-02-28T13:16:54;101615.50;;;11.08;60.74
28797;BME280;24974;54.444;18.560;2024-02-28T13:19:25;101608.75;;;10.27;61.42
28797;BME280;24974;54.444;18.560;2024-02-28T13:21:56;101615.34;;;10.21;61.54
28797;BME280;24974;54.444;18.560;2024-02-28T13:24:27;101611.66;;;10.75;60.33
28797;BME280;24974;54.444;18.560;2024-02-28T13:26:58;101620.28;;;10.63;61.22
28797;BME280;24974;54.444;18.560;2024-02-28T13:29:29;101619.97;;;10.99;59.55
28797;BME280;24974;54.444;18.560;2024-02-28T13:32:01;101620.13;;;10.83;60.96
28797;BME280;24974;54.444;18.560;2024-02-28T13:34:33;101622.66;;;11.09;59.65
28797;BME280;24974;54.444;18.560;2024-02-28T13:37:04;101620.72;;;9.92;62.51
28797;BME280;24974;54.444;18.560;2024-02-28T13:39:35;101634.06;;;10.14;62.34
28797;BME280;24974;54.444;18.560;2024-02-28T13:42:06;101625.03;;;9.48;63.60
28797;BME280;24974;54.444;18.560;2024-02-28T13:44:39;101636.06;;;10.03;61.61
28797;BME280;24974;54.444;18.560;2024-02-28T13:47:11;101630.81;;;10.01;62.25
28797;BME280;24974;54.444;18.560;2024-02-28T13:49:43;101636.66;;;10.78;59.29
28797;BME280;24974;54.444;18.560;2024-02-28T13:52:15;101637.25;;;10.75;60.19
28797;BME280;24974;54.444;18.560;2024-02-28T13:54:46;101638.31;;;10.79;59.31
28797;BME280;24974;54.444;18.560;2024-02-28T13:57:18;101633.53;;;10.56;60.57
28797;BME280;24974;54.444;18.560;2024-02-28T13:59:49;101640.00;;;10.36;60.90
28797;BME280;24974;54.444;18.560;2024-02-28T14:02:21;101642.91;;;10.55;61.04
28797;BME280;24974;54.444;18.560;2024-02-28T14:04:54;101653.25;;;9.59;62.11
28797;BME280;24974;54.444;18.560;2024-02-28T14:07:25;101653.00;;;10.15;62.47